Time;durP1;ratioP1;P1;durP2;ratioP2;P2;SDS_P1;SDS_P2;PMS_P1;PMS_P2;Temp;Humidity;BMP_temperature;BMP_pressure;BME280_temperature;BME280_humidity;BME280_pressure;Samples;Min_cycle;Max_cycle;Signal;HPM_P1;HPM_P2
2023/03/05 00:01:36;;;;;;;;;16.25;14.00;;;;;9.17;100.00;102103.97;5014828;28;45631;-75
2023/03/05 00:04:04;;;;;;;;;15.25;15.25;;;;;9.18;100.00;102104.88;5010765;28;61653;-73
2023/03/05 00:06:30;;;;;;;;;14.00;11.50;;;;;9.16;100.00;102093.38;5025185;28;45275;-72
2023/03/05 00:08:57;;;;;;;;;18.00;13.00;;;;;9.17;100.00;102096.06;5011229;28;45615;-73
2023/03/05 00:11:24;;;;;;;;;9.25;9.25;;;;;9.17;100.00;102096.06;5020520;28;45453;-75
2023/03/05 00:13:52;;;;;;;;;13.00;12.00;;;;;9.13;100.00;102094.16;5021751;28;45487;-74
2023/03/05 00:16:19;;;;;;;;;16.50;14.50;;;;;9.12;100.00;102094.13;4998041;28;45749;-73
2023/03/05 00:18:45;;;;;;;;;17.75;12.75;;;;;9.16;100.00;102093.38;5023339;28;46665;-72
2023/03/05 00:21:21;;;;;;;;;17.00;12.75;;;;;9.06;100.00;102071.06;5010028;28;45817;-72
2023/03/05 00:26:35;;;;;;;;;15.50;9.75;;;;;9.12;100.00;102080.94;5242997;22;45567;-79
2023/03/05 00:29:01;;;;;;;;;18.25;12.25;;;;;9.14;100.00;102092.41;4995043;28;46721;-79
2023/03/05 00:31:32;;;;;;;;;18.75;12.75;;;;;9.11;100.00;102087.06;4989598;28;45385;-77
2023/03/05 00:34:00;;;;;;;;;18.00;11.75;;;;;9.10;100.00;102096.66;4987869;28;45390;-77
2023/03/05 00:36:26;;;;;;;;;18.50;16.50;;;;;9.07;100.00;102090.41;4991683;28;45603;-79
2023/03/05 00:38:52;;;;;;;;;11.25;10.25;;;;;9.03;100.00;102092.03;4982324;28;46974;-78
2023/03/05 00:41:17;;;;;;;;;17.00;11.00;;;;;9.00;100.00;102094.56;4988752;28;49660;-78
2023/03/05 00:43:42;;;;;;;;;15.50;10.75;;;;;8.93;100.00;102084.59;4995211;28;45875;-78
2023/03/05 00:46:08;;;;;;;;;13.00;11.00;;;;;8.92;100.00;102083.72;4994287;28;61333;-78
2023/03/05 00:48:34;;;;;;;;;16.00;13.50;;;;;8.88;100.00;102086.16;4991519;28;46000;-79
2023/03/05 00:50:59;;;;;;;;;17.25;15.00;;;;;8.84;100.00;102074.66;4994384;28;45506;-78
2023/03/05 00:53:24;;;;;;;;;16.75;10.50;;;;;8.82;100.00;102084.19;4993690;28;62910;-77
2023/03/05 00:55:49;;;;;;;;;18.00;12.75;;;;;8.80;100.00;102079.72;4992940;28;59777;-78
2023/03/05 00:58:15;;;;;;;;;16.75;14.25;;;;;8.81;100.00;102074.50;4993969;28;67200;-78
2023/03/05 01:00:40;;;;;;;;;16.25;13.25;;;;;8.79;100.00;102068.31;4995083;28;54714;-82
2023/03/05 01:03:06;;;;;;;;;15.75;12.50;;;;;8.78;100.00;102069.13;4995122;28;45498;-81
2023/03/05 01:05:31;;;;;;;;;16.25;12.25;;;;;8.79;100.00;102064.75;4993164;28;45239;-79
2023/03/05 01:07:56;;;;;;;;;16.50;13.00;;;;;8.80;100.00;102071.84;4976674;28;45420;-77
2023/03/05 01:10:25;;;;;;;;;24.50;16.75;;;;;8.79;100.00;102070.00;4994275;28;45444;-81
2023/03/05 01:12:51;;;;;;;;;17.50;16.75;;;;;8.78;100.00;102071.75;4994959;28;45495;-79
2023/03/05 01:15:17;;;;;;;;;19.00;12.00;;;;;8.76;100.00;102069.91;4994603;28;45769;-78
2023/03/05 01:17:42;;;;;;;;;11.00;11.00;;;;;8.74;100.00;102066.34;4992841;28;73305;-79
2023/03/05 01:20:08;;;;;;;;;16.00;15.00;;;;;8.70;100.00;102059.16;4992364;28;62990;-80
2023/03/05 01:22:33;;;;;;;;;14.50;12.00;;;;;8.65;100.00;102062.50;4994964;28;45556;-77
2023/03/05 01:24:59;;;;;;;;;19.00;12.75;;;;;8.65;100.00;102064.22;4974377;28;62087;-81
2023/03/05 01:27:24;;;;;;;;;18.25;17.00;;;;;8.60;100.00;102053.53;5002097;28;46866;-78
2023/03/05 01:29:50;;;;;;;;;16.75;14.75;;;;;8.58;100.00;102055.22;5007778;28;45581;-79
2023/03/05 01:32:15;;;;;;;;;18.00;17.25;;;;;8.55;100.00;102049.81;5009174;28;65797;-78
2023/03/05 01:34:40;;;;;;;;;16.25;14.50;;;;;8.55;100.00;102048.91;5011492;28;61353;-81
2023/03/05 01:37:07;;;;;;;;;15.75;14.00;;;;;8.52;100.00;102039.19;5014772;28;47204;-81
2023/03/05 01:39:32;;;;;;;;;14.00;14.00;;;;;8.53;100.00;102034.81;5015398;28;45449;-82
2023/03/05 01:41:57;;;;;;;;;14.75;12.50;;;;;8.53;100.00;102029.56;5015545;28;45445;-78
2023/03/05 01:44:25;;;;;;;;;18.75;16.00;;;;;8.52;100.00;102027.72;5015285;28;45271;-81
2023/03/05 01:46:51;;;;;;;;;19.50;13.25;;;;;8.51;100.00;102026.84;4997254;28;48188;-78
2023/03/05 01:49:34;;;;;;;;;15.50;14.00;;;;;8.53;100.00;102021.66;5013317;28;45321;-78
2023/03/05 01:52:07;;;;;;;;;16.00;13.25;;;;;8.53;100.00;102019.91;5010907;28;45374;-78
2023/03/05 01:54:36;;;;;;;;;18.75;15.75;;;;;8.51;100.00;102020.69;4990821;28;45187;-78
2023/03/05 01:57:08;;;;;;;;;18.75;14.50;;;;;8.51;100.00;102013.66;5016136;28;47861;-78
2023/03/05 01:59:35;;;;;;;;;16.00;12.00;;;;;8.52;100.00;102015.50;5013701;28;45359;-77
2023/03/05 02:02:02;;;;;;;;;18.50;12.25;;;;;8.53;100.00;102016.38;5018893;28;45348;-79
2023/03/05 02:04:45;;;;;;;;;16.00;11.75;;;;;8.50;100.00;102001.34;5000516;28;45256;-78
2023/03/05 02:07:12;;;;;;;;;18.00;11.00;;;;;8.53;100.00;102004.13;5000829;28;46468;-79
2023/03/05 02:09:39;;;;;;;;;18.50;14.25;;;;;8.53;100.00;102006.75;5018353;28;45347;-80
2023/03/05 02:12:05;;;;;;;;;21.00;16.00;;;;;8.52;100.00;102007.59;5018651;28;45150;-77
2023/03/05 02:14:31;;;;;;;;;13.25;12.75;;;;;8.51;100.00;102002.25;5015644;28;45379;-80
2023/03/05 02:16:56;;;;;;;;;20.50;18.00;;;;;8.52;100.00;101998.78;5018214;28;45263;-78
2023/03/05 02:19:22;;;;;;;;;16.50;11.75;;;;;8.51;100.00;101994.34;5009632;28;45556;-81
2023/03/05 02:21:49;;;;;;;;;19.00;16.00;;;;;8.50;100.00;101993.47;5015219;28;57892;-81
2023/03/05 02:24:17;;;;;;;;;13.50;12.00;;;;;8.49;100.00;101986.41;5006866;28;45576;-82
2023/03/05 02:26:43;;;;;;;;;18.50;13.75;;;;;8.50;100.00;101984.66;5018472;28;46383;-78
2023/03/05 02:29:12;;;;;;;;;20.25;13.50;;;;;8.51;100.00;101984.72;5016987;28;45520;-78
2023/03/05 02:31:37;;;;;;;;;17.50;14.75;;;;;8.50;100.00;101968.88;4999915;28;45581;-82
2023/03/05 02:34:03;;;;;;;;;21.00;16.25;;;;;8.52;100.00;101968.13;5021129;28;45271;-78
2023/03/05 02:36:28;;;;;;;;;13.75;13.25;;;;;8.51;100.00;101965.41;5018030;28;45777;-78
2023/03/05 02:38:55;;;;;;;;;18.75;14.50;;;;;8.53;100.00;101959.38;5017204;28;66041;-77
2023/03/05 02:41:21;;;;;;;;;20.25;18.75;;;;;8.54;100.00;101968.16;5019219;28;45544;-77
2023/03/05 02:43:47;;;;;;;;;20.25;15.75;;;;;8.54;100.00;101960.25;5018915;28;45230;-78
2023/03/05 02:46:12;;;;;;;;;19.75;15.00;;;;;8.52;100.00;101954.94;5010283;28;61878;-78
2023/03/05 02:48:37;;;;;;;;;17.00;15.50;;;;;8.54;100.00;101958.53;5017190;28;51613;-78
2023/03/05 02:51:04;;;;;;;;;14.50;12.50;;;;;8.53;100.00;101951.47;5017194;28;62392;-78
2023/03/05 02:53:29;;;;;;;;;22.50;14.75;;;;;8.55;100.00;101952.41;4999654;28;45577;-78
2023/03/05 02:55:55;;;;;;;;;12.25;12.00;;;;;8.55;100.00;101943.63;5016291;28;68907;-78
2023/03/05 02:58:20;;;;;;;;;19.25;13.00;;;;;8.55;100.00;101941.00;4982709;28;65832;-81
2023/03/05 03:00:45;;;;;;;;;16.25;12.75;;;;;8.54;100.00;101939.22;5014087;28;45337;-79
2023/03/05 03:03:11;;;;;;;;;15.00;15.00;;;;;8.53;100.00;101937.41;4999396;28;45255;-79
2023/03/05 03:05:37;;;;;;;;;13.25;12.25;;;;;8.53;100.00;101932.16;5015250;28;47741;-78
2023/03/05 03:08:02;;;;;;;;;15.00;10.75;;;;;8.51;100.00;101926.81;5016240;28;45456;-77
2023/03/05 03:10:28;;;;;;;;;20.75;13.50;;;;;8.51;100.00;101915.38;5017846;28;45426;-81
2023/03/05 03:12:53;;;;;;;;;18.00;14.75;;;;;8.53;100.00;101925.16;5017030;28;47912;-81
2023/03/05 03:15:18;;;;;;;;;20.50;15.00;;;;;8.54;100.00;101920.78;5014124;28;68186;-78
2023/03/05 03:17:44;;;;;;;;;19.50;18.50;;;;;8.52;100.00;101918.09;5019927;28;45425;-78
2023/03/05 03:20:15;;;;;;;;;18.00;13.00;;;;;8.53;100.00;101924.25;5028702;28;45342;-80
2023/03/05 03:22:42;;;;;;;;;16.25;12.50;;;;;8.53;100.00;101921.63;5029413;28;45484;-78
2023/03/05 03:25:09;;;;;;;;;17.00;16.50;;;;;8.51;100.00;101908.38;5019457;28;45429;-80
2023/03/05 03:27:34;;;;;;;;;19.25;15.50;;;;;8.55;100.00;101917.31;5016892;28;45538;-78
2023/03/05 03:30:03;;;;;;;;;19.25;18.00;;;;;8.54;100.00;101915.50;5015841;28;45588;-78
2023/03/05 03:32:29;;;;;;;;;27.00;14.25;;;;;8.54;100.00;101912.88;5017357;28;45299;-77
2023/03/05 03:34:54;;;;;;;;;21.25;15.50;;;;;8.55;100.00;101912.03;4998879;28;46672;-80
2023/03/05 03:37:19;;;;;;;;;17.00;13.75;;;;;8.53;100.00;101908.47;5017620;28;45263;-78
2023/03/05 03:39:45;;;;;;;;;23.00;16.00;;;;;8.54;100.00;101905.00;5016838;28;45197;-77
2023/03/05 03:42:10;;;;;;;;;16.75;15.25;;;;;8.55;100.00;101904.13;4997962;28;50878;-78
2023/03/05 03:44:35;;;;;;;;;20.00;15.50;;;;;8.54;100.00;101897.97;5017055;28;46499;-78
2023/03/05 03:47:01;;;;;;;;;20.75;16.75;;;;;8.56;100.00;101903.28;5016883;28;45412;-78
2023/03/05 03:49:26;;;;;;;;;22.50;18.75;;;;;8.60;100.00;101899.94;5016681;28;46477;-78
2023/03/05 03:51:53;;;;;;;;;18.50;16.00;;;;;8.63;100.00;101889.53;5015813;28;45792;-81
2023/03/05 03:54:19;;;;;;;;;16.75;12.00;;;;;8.67;100.00;101888.78;5016357;28;46764;-80
2023/03/05 03:56:44;;;;;;;;;12.75;11.00;;;;;8.69;100.00;101887.09;5017228;28;45394;-81
2023/03/05 03:59:10;;;;;;;;;20.25;15.75;;;;;8.74;100.00;101879.38;5014734;28;67659;-79
2023/03/05 04:01:36;;;;;;;;;15.00;13.50;;;;;8.77;100.00;101890.91;5016206;28;59391;-78
2023/03/05 04:04:02;;;;;;;;;18.50;15.50;;;;;8.79;100.00;101886.59;5016337;28;46351;-77
2023/03/05 04:06:28;;;;;;;;;15.75;15.75;;;;;8.81;100.00;101878.75;5016321;28;45379;-79
2023/03/05 04:08:53;;;;;;;;;22.75;18.25;;;;;8.84;100.00;101877.13;5015167;28;61755;-81
2023/03/05 04:11:19;;;;;;;;;14.75;12.50;;;;;8.84;100.00;101877.13;5016873;28;45623;-78
2023/03/05 04:13:45;;;;;;;;;19.75;16.75;;;;;8.86;100.00;101882.44;4996686;28;46396;-78
2023/03/05 04:16:11;;;;;;;;;22.25;17.00;;;;;8.86;100.00;101874.53;5013413;28;45418;-77
2023/03/05 04:18:36;;;;;;;;;17.75;12.25;;;;;8.87;100.00;101876.31;5014773;28;45432;-78
2023/03/05 04:21:02;;;;;;;;;18.75;12.00;;;;;8.88;100.00;101879.00;5015624;28;61881;-78
2023/03/05 04:23:27;;;;;;;;;16.00;11.50;;;;;8.88;100.00;101880.72;5016369;28;46997;-77
2023/03/05 04:25:53;;;;;;;;;18.25;11.75;;;;;8.88;100.00;101871.09;5013366;28;45519;-79
2023/03/05 04:28:18;;;;;;;;;9.25;8.00;;;;;8.89;100.00;101872.91;4996687;28;45677;-77
2023/03/05 04:30:43;;;;;;;;;15.00;11.75;;;;;8.89;100.00;101874.63;4995834;28;65467;-81
2023/03/05 04:33:09;;;;;;;;;16.25;13.75;;;;;8.89;100.00;101872.91;4994537;28;64641;-77
2023/03/05 04:35:35;;;;;;;;;14.00;13.00;;;;;8.89;100.00;101870.28;4995779;28;58473;-77
2023/03/05 04:38:00;;;;;;;;;12.00;11.75;;;;;8.89;100.00;101862.38;4996623;28;45443;-76
2023/03/05 04:40:25;;;;;;;;;16.00;12.25;;;;;8.89;100.00;101866.72;4979292;28;45422;-77
2023/03/05 04:42:51;;;;;;;;;14.25;12.25;;;;;8.89;100.00;101850.91;4999174;28;69712;-78
2023/03/05 04:45:16;;;;;;;;;16.25;12.00;;;;;8.90;100.00;101855.38;4995682;28;67239;-77
2023/03/05 04:47:42;;;;;;;;;17.00;10.00;;;;;8.89;100.00;101858.81;4996393;28;45353;-81
2023/03/05 04:50:08;;;;;;;;;11.75;11.75;;;;;8.88;100.00;101857.03;4996166;28;45553;-78
2023/03/05 04:52:33;;;;;;;;;10.75;8.50;;;;;8.90;100.00;101858.88;4997955;28;47298;-82
2023/03/05 04:54:59;;;;;;;;;15.25;10.50;;;;;8.91;100.00;101857.16;4996206;28;45277;-81
2023/03/05 04:57:24;;;;;;;;;15.50;14.00;;;;;8.89;100.00;101849.22;4995317;28;60962;-78
2023/03/05 04:59:49;;;;;;;;;14.50;13.25;;;;;8.91;100.00;101857.16;4994287;28;45616;-79
2023/03/05 05:02:15;;;;;;;;;15.00;12.50;;;;;8.93;100.00;101850.19;4994314;28;67563;-77
2023/03/05 05:04:43;;;;;;;;;14.00;12.00;;;;;8.92;100.00;101843.13;4994867;28;66509;-78
2023/03/05 05:07:09;;;;;;;;;16.00;12.25;;;;;8.91;100.00;101833.44;4996326;28;45370;-77
2023/03/05 05:09:35;;;;;;;;;16.75;10.50;;;;;8.91;100.00;101836.09;4996129;28;45548;-78
2023/03/05 05:12:00;;;;;;;;;15.50;13.75;;;;;8.89;100.00;101828.13;4996174;28;46701;-77
2023/03/05 05:14:25;;;;;;;;;16.00;14.00;;;;;8.91;100.00;101834.34;4995165;28;61941;-77
2023/03/05 05:16:51;;;;;;;;;19.00;14.75;;;;;8.87;100.00;101827.16;4995459;28;62305;-77
2023/03/05 05:19:16;;;;;;;;;12.00;10.00;;;;;8.88;100.00;101815.78;4994640;28;62858;-77
2023/03/05 05:21:41;;;;;;;;;11.00;8.75;;;;;8.88;100.00;101830.69;4995086;28;69283;-78
2023/03/05 05:24:08;;;;;;;;;16.00;12.00;;;;;8.86;100.00;101813.97;4978530;28;45474;-80
2023/03/05 05:26:33;;;;;;;;;18.50;13.50;;;;;8.89;100.00;101829.84;5004964;28;52057;-79
2023/03/05 05:28:59;;;;;;;;;15.25;12.75;;;;;8.85;100.00;101815.69;5015212;28;45579;-77
2023/03/05 05:31:24;;;;;;;;;19.25;15.25;;;;;8.83;100.00;101808.56;5016133;28;67313;-77
2023/03/05 05:33:49;;;;;;;;;16.00;13.00;;;;;8.84;100.00;101818.25;5018131;28;45416;-77
2023/03/05 05:36:18;;;;;;;;;13.75;12.00;;;;;8.83;100.00;101812.09;5018599;28;61701;-77
2023/03/05 05:38:43;;;;;;;;;13.00;13.00;;;;;8.83;100.00;101817.38;5018770;28;45281;-77
2023/03/05 05:41:11;;;;;;;;;19.75;12.75;;;;;8.83;100.00;101812.09;5018031;28;46233;-79
2023/03/05 05:43:37;;;;;;;;;18.00;13.00;;;;;8.84;100.00;101810.34;5018538;28;45300;-77
2023/03/05 05:46:04;;;;;;;;;16.25;11.50;;;;;8.83;100.00;101813.84;5018902;28;45391;-77
2023/03/05 05:48:32;;;;;;;;;15.50;10.00;;;;;8.82;100.00;101815.59;5019108;28;45506;-81
2023/03/05 05:50:57;;;;;;;;;17.25;12.75;;;;;8.83;100.00;101814.72;5019212;28;46429;-76
2023/03/05 05:53:23;;;;;;;;;15.50;10.25;;;;;8.83;100.00;101817.38;5017216;28;46025;-76
2023/03/05 05:55:49;;;;;;;;;16.00;9.50;;;;;8.83;100.00;101809.47;5019021;28;45457;-78
2023/03/05 05:58:14;;;;;;;;;13.00;11.50;;;;;8.81;100.00;101808.53;5018634;28;45552;-76
2023/03/05 06:00:40;;;;;;;;;22.50;12.75;;;;;8.81;100.00;101805.00;5017104;28;70660;-77
2023/03/05 06:03:06;;;;;;;;;15.75;9.75;;;;;8.84;100.00;101810.34;5019028;28;45387;-77
2023/03/05 06:05:32;;;;;;;;;7.75;7.75;;;;;8.84;100.00;101802.47;5018320;28;46063;-81
2023/03/05 06:07:57;;;;;;;;;17.25;9.75;;;;;8.83;100.00;101803.31;5018574;28;45480;-77
2023/03/05 06:10:23;;;;;;;;;10.50;8.00;;;;;8.80;100.00;101801.47;5017775;28;55672;-77
2023/03/05 06:12:51;;;;;;;;;11.25;11.25;;;;;8.79;100.00;101798.78;5010329;28;61150;-81
2023/03/05 06:15:25;;;;;;;;;16.00;11.50;;;;;8.79;100.00;101804.03;5017806;28;62348;-79
2023/03/05 06:17:51;;;;;;;;;10.75;7.00;;;;;8.77;100.00;101795.19;5017770;28;62944;-80
2023/03/05 06:20:17;;;;;;;;;17.00;12.25;;;;;8.74;100.00;101806.53;5017617;28;45659;-81
2023/03/05 06:22:42;;;;;;;;;15.75;11.50;;;;;8.70;100.00;101807.28;5018032;28;45432;-83
2023/03/05 06:25:08;;;;;;;;;12.50;11.25;;;;;8.65;100.00;101801.84;5018782;28;45263;-81
2023/03/05 06:27:34;;;;;;;;;16.00;12.00;;;;;8.61;100.00;101802.56;5018322;28;45456;-79
2023/03/05 06:30:00;;;;;;;;;12.00;12.00;;;;;8.59;100.00;101798.13;5000001;28;45456;-79
2023/03/05 06:32:26;;;;;;;;;13.00;11.50;;;;;8.56;100.00;101808.53;5000222;28;45651;-80
2023/03/05 06:34:51;;;;;;;;;15.00;12.50;;;;;8.55;100.00;101809.38;5016499;28;65580;-82
2023/03/05 06:37:17;;;;;;;;;16.75;11.25;;;;;8.54;100.00;101803.22;5017981;28;45203;-79
2023/03/05 06:39:42;;;;;;;;;17.00;11.75;;;;;8.53;100.00;101806.69;5017588;28;46520;-78
2023/03/05 06:42:07;;;;;;;;;17.50;11.00;;;;;8.49;100.00;101804.78;4998920;28;61064;-82
2023/03/05 06:44:33;;;;;;;;;18.25;12.00;;;;;8.50;100.00;101808.31;5018666;28;45413;-79
2023/03/05 06:46:58;;;;;;;;;13.50;11.50;;;;;8.49;100.00;101803.91;5017211;28;60515;-82
2023/03/05 06:49:23;;;;;;;;;19.00;12.25;;;;;8.48;100.00;101805.66;5014544;28;69917;-79
2023/03/05 06:51:49;;;;;;;;;12.25;11.00;;;;;8.47;100.00;101795.97;5014105;28;52421;-81
2023/03/05 06:54:16;;;;;;;;;15.75;12.00;;;;;8.51;100.00;101808.38;5017833;28;45412;-79
2023/03/05 06:56:43;;;;;;;;;11.25;11.25;;;;;8.51;100.00;101796.94;4999040;28;45541;-78
2023/03/05 06:59:10;;;;;;;;;16.75;13.00;;;;;8.51;100.00;101795.19;5016652;28;46486;-79
2023/03/05 07:01:35;;;;;;;;;14.50;9.25;;;;;8.54;100.00;101800.59;5014271;28;45420;-80
2023/03/05 07:04:01;;;;;;;;;19.75;14.00;;;;;8.57;100.00;101799.78;5017058;28;64828;-79
2023/03/05 07:06:28;;;;;;;;;12.75;11.50;;;;;8.55;100.00;101783.94;5000177;28;45485;-78
2023/03/05 07:08:55;;;;;;;;;17.75;11.25;;;;;8.57;100.00;101784.00;4998998;28;48235;-79
2023/03/05 07:11:21;;;;;;;;;12.75;10.75;;;;;8.56;100.00;101788.34;5017581;28;45427;-78
2023/03/05 07:13:47;;;;;;;;;7.75;7.25;;;;;8.58;100.00;101786.69;5016037;28;45351;-78
2023/03/05 07:16:18;;;;;;;;;12.75;11.25;;;;;8.61;100.00;101791.16;5016178;28;45477;-81
2023/03/05 07:18:44;;;;;;;;;11.50;7.75;;;;;8.65;100.00;101793.06;5017196;28;47553;-77
2023/03/05 07:21:12;;;;;;;;;17.00;11.00;;;;;8.65;100.00;101780.78;5016978;28;45240;-79
2023/03/05 07:23:37;;;;;;;;;8.75;7.25;;;;;8.68;100.00;101787.88;5017667;28;45452;-80
2023/03/05 07:26:05;;;;;;;;;8.00;6.00;;;;;8.72;100.00;101791.53;5016678;28;59627;-80
2023/03/05 07:28:31;;;;;;;;;11.50;8.75;;;;;8.73;100.00;101786.28;5017067;28;46042;-80
2023/03/05 07:30:57;;;;;;;;;16.25;7.75;;;;;8.74;100.00;101792.50;5017077;28;45397;-79
2023/03/05 07:33:24;;;;;;;;;12.00;7.75;;;;;8.77;100.00;101797.84;5016915;28;45487;-78
2023/03/05 07:35:49;;;;;;;;;15.00;12.00;;;;;8.79;100.00;101797.06;5014599;28;45537;-80
2023/03/05 07:38:14;;;;;;;;;11.25;8.00;;;;;8.81;100.00;101800.63;5016908;28;46542;-78
2023/03/05 07:40:40;;;;;;;;;13.50;10.50;;;;;8.84;100.00;101794.56;5014841;28;66347;-78
2023/03/05 07:43:05;;;;;;;;;15.50;9.75;;;;;8.87;100.00;101800.84;5008411;28;61144;-82
2023/03/05 07:45:31;;;;;;;;;14.50;11.00;;;;;8.91;100.00;101799.22;5005699;28;45577;-82
2023/03/05 07:47:56;;;;;;;;;15.50;10.75;;;;;8.91;100.00;101797.47;5002610;28;45856;-79
2023/03/05 07:50:22;;;;;;;;;12.00;9.00;;;;;8.95;100.00;101801.09;5004360;28;47256;-79
2023/03/05 07:52:47;;;;;;;;;13.50;11.00;;;;;8.97;100.00;101796.78;5005611;28;45577;-77
2023/03/05 07:55:12;;;;;;;;;16.00;12.25;;;;;8.98;100.00;101802.94;5004938;28;63482;-74
2023/03/05 07:57:38;;;;;;;;;12.75;10.00;;;;;9.02;100.00;101799.56;5015469;28;46447;-75
2023/03/05 08:00:05;;;;;;;;;10.50;9.25;;;;;9.03;100.00;101801.34;4995443;28;46256;-75
2023/03/05 08:02:30;;;;;;;;;12.75;9.25;;;;;9.07;100.00;101796.22;5013918;28;45454;-76
2023/03/05 08:04:56;;;;;;;;;12.25;12.00;;;;;9.10;100.00;101790.16;5016150;28;58994;-78
2023/03/05 08:07:21;;;;;;;;;16.25;11.75;;;;;9.16;100.00;101795.59;5015645;28;46881;-77
2023/03/05 08:09:47;;;;;;;;;14.50;8.25;;;;;9.15;100.00;101785.94;5008790;28;52002;-79
2023/03/05 08:12:12;;;;;;;;;18.00;16.25;;;;;9.20;100.00;101792.22;5016346;28;45495;-77
2023/03/05 08:14:37;;;;;;;;;17.75;13.50;;;;;9.26;100.00;101795.06;5014894;28;45540;-77
2023/03/05 08:17:04;;;;;;;;;18.50;13.00;;;;;9.27;100.00;101783.69;5013415;28;62310;-77
2023/03/05 08:19:29;;;;;;;;;21.75;12.50;;;;;9.32;100.00;101783.81;5014720;28;45552;-77
2023/03/05 08:21:55;;;;;;;;;13.25;12.25;;;;;9.34;100.00;101776.88;5015512;28;60734;-77
2023/03/05 08:24:22;;;;;;;;;15.25;12.50;;;;;9.37;100.00;101775.19;5014914;28;60418;-80
2023/03/05 08:26:47;;;;;;;;;12.50;10.00;;;;;9.39;100.00;101775.28;5015096;28;45470;-79
2023/03/05 08:29:12;;;;;;;;;12.75;10.75;;;;;9.42;100.00;101778.88;5012083;28;45471;-78
2023/03/05 08:31:38;;;;;;;;;12.50;11.50;;;;;9.48;100.00;101772.00;5014851;28;62387;-77
2023/03/05 08:34:04;;;;;;;;;14.75;8.75;;;;;9.52;100.00;101773.91;5009464;28;45494;-80
2023/03/05 08:36:29;;;;;;;;;18.00;14.50;;;;;9.55;100.00;101766.09;5011532;28;46508;-79
2023/03/05 08:38:55;;;;;;;;;16.75;10.50;;;;;9.59;100.00;101768.88;5012428;28;45353;-77
2023/03/05 08:41:20;;;;;;;;;18.25;12.75;;;;;9.62;100.00;101768.94;5015127;28;45513;-79
2023/03/05 08:43:46;;;;;;;;;17.75;11.00;;;;;9.69;100.00;101764.75;4980932;28;45540;-79
2023/03/05 08:46:13;;;;;;;;;16.00;12.75;;;;;9.73;100.00;101763.09;5013479;28;45654;-77
2023/03/05 08:48:38;;;;;;;;;11.50;8.75;;;;;9.74;100.00;101765.78;4996903;28;45810;-79
2023/03/05 08:51:24;;;;;;;;;20.25;10.75;;;;;9.77;100.00;101765.88;5013869;28;45389;-78
2023/03/05 08:53:50;;;;;;;;;17.50;17.00;;;;;9.79;100.00;101758.88;5014369;28;46131;-80
2023/03/05 08:56:16;;;;;;;;;11.50;11.50;;;;;9.82;100.00;101766.91;5013775;28;47349;-76
2023/03/05 08:58:42;;;;;;;;;13.75;11.75;;;;;9.82;100.00;101772.19;5014639;28;64611;-77
2023/03/05 09:01:08;;;;;;;;;28.25;13.75;;;;;9.81;100.00;101765.13;5007612;28;45689;-77
2023/03/05 09:03:33;;;;;;;;;16.00;12.50;;;;;9.82;100.00;101758.09;5002803;28;61415;-83
2023/03/05 09:06:03;;;;;;;;;14.00;9.00;;;;;9.81;100.00;101754.56;4999782;28;54273;-80
2023/03/05 09:08:30;;;;;;;;;14.75;14.00;;;;;9.85;100.00;101753.78;5006598;28;45584;-80
2023/03/05 09:10:56;;;;;;;;;19.75;16.00;;;;;9.89;100.00;101758.31;5006839;28;45467;-77
2023/03/05 09:13:21;;;;;;;;;14.75;13.50;;;;;9.96;100.00;101751.47;5005701;28;45552;-83
2023/03/05 09:15:57;;;;;;;;;21.50;16.25;;;;;10.05;100.00;101754.34;5005671;28;51861;-80
2023/03/05 09:18:22;;;;;;;;;19.00;13.25;;;;;10.14;100.00;101753.72;4985692;28;45551;-82
2023/03/05 09:20:48;;;;;;;;;18.50;14.00;;;;;10.19;100.00;101750.38;5007067;28;45498;-85
2023/03/05 09:23:13;;;;;;;;;15.75;14.25;;;;;10.26;100.00;101751.44;4986538;28;46420;-81
2023/03/05 09:25:40;;;;;;;;;18.00;13.00;;;;;10.31;100.00;101756.84;5000680;28;72402;-83
2023/03/05 09:28:05;;;;;;;;;20.00;17.25;;;;;10.37;100.00;101757.00;4995707;28;45501;-82
2023/03/05 09:30:30;;;;;;;;;19.25;12.00;;;;;10.36;100.00;101756.13;5014868;28;45436;-80
2023/03/05 09:32:56;;;;;;;;;13.50;12.00;;;;;10.38;100.00;101750.88;5016080;28;46231;-81
2023/03/05 09:35:21;;;;;;;;;14.75;12.25;;;;;10.37;100.00;101747.34;5005093;28;45640;-80
2023/03/05 09:37:46;;;;;;;;;19.75;12.25;;;;;10.39;100.00;101750.94;5009504;28;45553;-80
2023/03/05 09:40:15;;;;;;;;;16.75;14.00;;;;;10.38;100.00;101746.47;5001795;28;45349;-80
2023/03/05 09:43:04;;;;;;;;;14.25;13.75;;;;;10.39;100.00;101736.84;4983444;28;45735;-82
2023/03/05 09:45:57;;;;;;;;;20.50;12.75;;;;;10.40;100.00;101733.34;4998568;28;45937;-81
2023/03/05 09:48:55;;;;;;;;;12.75;10.00;;;;;10.43;100.00;101725.50;4993329;28;45552;-82
2023/03/05 09:51:23;;;;;;;;;12.25;12.25;;;;;10.43;100.00;101725.50;4974866;28;45682;-81
2023/03/05 09:54:12;;;;;;;;;17.00;15.50;;;;;10.44;100.00;101720.28;5002508;28;45627;-81
2023/03/05 09:56:44;;;;;;;;;16.75;11.25;;;;;10.45;100.00;101715.88;4987714;28;47991;-80
2023/03/05 09:59:30;;;;;;;;;14.00;10.50;;;;;10.45;100.00;101710.59;4984746;28;45607;-81
2023/03/05 10:02:00;;;;;;;;;16.50;11.00;;;;;10.51;100.00;101715.16;5005178;28;45413;-81
2023/03/05 10:04:55;;;;;;;;;12.00;10.75;;;;;10.55;100.00;101703.81;5006862;28;46173;-76
2023/03/05 10:07:28;;;;;;;;;15.75;13.25;;;;;10.57;100.00;101699.44;4953550;28;45599;-77
2023/03/05 10:09:57;;;;;;;;;20.50;13.50;;;;;10.58;100.00;101698.59;4984265;28;45645;-78
2023/03/05 10:12:42;;;;;;;;;14.00;9.25;;;;;10.55;100.00;101691.50;4994183;28;45526;-79
2023/03/05 10:15:12;;;;;;;;;13.50;13.00;;;;;10.54;100.00;101691.44;5013174;28;45417;-77
2023/03/05 10:17:49;;;;;;;;;15.50;15.50;;;;;10.54;100.00;101683.50;5004243;28;46534;-79
2023/03/05 10:20:56;;;;;;;;;10.75;10.00;;;;;10.52;100.00;101691.41;4992205;28;45565;-80
2023/03/05 10:23:28;;;;;;;;;15.50;10.00;;;;;10.47;100.00;101680.72;5011359;28;45849;-78
2023/03/05 10:26:07;;;;;;;;;13.50;9.50;;;;;10.45;100.00;101692.13;5011254;28;47039;-80
2023/03/05 10:28:50;;;;;;;;;16.00;13.00;;;;;10.43;100.00;101696.44;5006295;28;45578;-77
2023/03/05 10:31:23;;;;;;;;;10.50;7.75;;;;;10.40;100.00;101684.06;5007113;28;45436;-76
2023/03/05 10:33:55;;;;;;;;;22.50;14.75;;;;;10.39;100.00;101687.56;4988582;28;45573;-80
2023/03/05 10:36:57;;;;;;;;;10.50;9.75;;;;;10.41;100.00;101682.31;5002471;28;45584;-79
2023/03/05 10:39:39;;;;;;;;;12.00;9.00;;;;;10.43;100.00;101670.94;5009830;28;46404;-80
2023/03/05 10:42:23;;;;;;;;;10.50;8.75;;;;;10.51;100.00;101678.19;5005357;28;45528;-80
2023/03/05 10:44:52;;;;;;;;;11.75;10.50;;;;;10.54;100.00;101668.56;5003850;28;45789;-80
2023/03/05 10:47:41;;;;;;;;;9.00;9.00;;;;;10.57;100.00;101668.66;4983790;28;45972;-79
2023/03/05 10:50:22;;;;;;;;;12.75;8.25;;;;;10.60;100.00;101670.44;5013021;28;46904;-81
2023/03/05 10:52:57;;;;;;;;;12.00;9.50;;;;;10.59;100.00;101659.00;5000086;28;47235;-81
2023/03/05 10:55:23;;;;;;;;;13.00;9.00;;;;;10.59;100.00;101664.28;4997375;28;45598;-81
2023/03/05 10:57:48;;;;;;;;;18.00;13.00;;;;;10.59;100.00;101656.34;4992652;28;65161;-78
2023/03/05 11:00:25;;;;;;;;;11.75;8.75;;;;;10.61;100.00;101659.06;5020923;28;64991;-80
2023/03/05 11:03:04;;;;;;;;;9.25;9.00;;;;;10.59;100.00;101656.34;5007199;28;45422;-80
2023/03/05 11:05:47;;;;;;;;;12.75;10.50;;;;;10.56;100.00;101655.41;5014276;28;45506;-78
2023/03/05 11:08:25;;;;;;;;;6.50;5.00;;;;;10.56;100.00;101648.38;5000604;28;47052;-80
2023/03/05 11:11:10;;;;;;;;;9.50;6.25;;;;;10.59;100.00;101648.44;5015518;28;47456;-81
2023/03/05 11:13:49;;;;;;;;;13.75;9.00;;;;;10.59;100.00;101639.63;5014226;28;45482;-79
2023/03/05 11:16:18;;;;;;;;;7.00;6.50;;;;;10.63;100.00;101645.03;5013748;28;45492;-79